Latest Weather Observations for Ben Nevis

IDV60801

Issued at 5:05 pm EST Wednesday 16 April 2014 (issued every 30 minutes, with the page automatically refreshed every 10 minutes)

About weather observations | Map of weather stations | Latest weather observations for VIC | Other Formats
Station Details ID: 079101 Name: BEN NEVIS Lat: -37.23 Lon: 143.20 Height: 875.0 m
Data from the previous 72 hours. | See also: Recent months at Ben Nevis
Date/Time
EST
Temp
°C
App
Temp
°C
Dew
Point
Rel
Hum
%
Delta-T
°C
Wind Press
QNH
hPa
Press
MSL
hPa
Rain
since 9 am
mm
Dir
 
Spd
km/h
Gust
km/h
Spd
kts
Gust
kts
16/05:00pm 14.0 12.0 7.1 63 3.5 WNW 7 13 4 7 - - 0.0
16/04:30pm 14.1 12.8 7.6 65 3.4 NW 4 11 2 6 - - 0.0
16/04:00pm 14.1 12.2 6.9 62 3.7 WNW 6 11 3 6 - - 0.0
16/03:30pm 14.9 12.1 7.0 59 4.1 WNW 11 17 6 9 - - 0.0
16/03:00pm 17.0 14.3 7.4 53 5.0 W 11 20 6 11 - - 0.0
16/02:30pm 15.2 12.7 6.7 57 4.3 NW 9 20 5 11 - - 0.0
16/02:00pm 16.3 14.5 7.8 57 4.5 W 7 17 4 9 - - 0.0
16/01:30pm 14.8 12.9 7.4 61 3.8 WNW 7 13 4 7 - - 0.0
16/01:00pm 15.8 13.5 7.6 58 4.3 WNW 9 20 5 11 - - 0.0
16/12:30pm 15.2 12.7 6.7 57 4.3 NW 9 20 5 11 - - 0.0
16/12:00pm 15.5 13.3 7.8 60 4.0 NNW 9 17 5 9 - - 0.0
16/11:30am 14.2 11.8 7.0 62 3.7 WNW 9 15 5 8 - - 0.0
16/11:00am 13.4 11.0 7.2 66 3.2 W 9 15 5 8 - - 0.0
16/10:30am 13.3 10.5 6.9 65 3.2 W 11 17 6 9 - - 0.0
16/10:00am 12.7 9.5 7.0 68 2.9 W 13 17 7 9 - - 0.0
16/09:30am 11.2 7.5 6.3 72 2.4 W 15 20 8 11 - - 0.0
16/09:00am 10.4 6.3 6.4 76 2.0 W 17 24 9 13 - - 0.2
16/08:30am 9.7 6.4 6.6 81 1.5 W 13 20 7 11 - - 0.2
16/08:00am 9.2 5.9 6.6 84 1.3 W 13 19 7 10 - - 0.2
16/07:30am 7.8 4.8 6.1 89 0.8 W 11 15 6 8 - - 0.2
16/07:00am 7.3 4.3 5.8 90 0.7 W 11 13 6 7 - - 0.2
16/06:30am 7.3 4.2 5.6 89 0.8 W 11 13 6 7 - - 0.2
16/06:00am 7.5 4.7 5.3 86 1.0 WSW 9 9 5 5 - - 0.2
16/05:30am 8.3 6.9 5.6 83 1.3 WSW 2 7 1 4 - - 0.2
16/05:00am 7.1 4.4 5.7 91 0.7 WSW 9 9 5 5 - - 0.2
16/04:30am 7.4 4.7 5.7 89 0.8 WSW 9 11 5 6 - - 0.2
16/04:00am 7.6 5.0 5.9 89 0.8 W 9 11 5 6 - - 0.2
16/03:30am 7.5 4.8 5.5 87 0.9 W 9 11 5 6 - - 0.2
16/03:00am 8.3 7.3 5.4 82 1.4 CALM 0 0 0 0 - - 0.0
16/02:30am 9.1 8.1 5.8 80 1.6 CALM 0 4 0 2 - - 0.0
16/02:00am 9.2 7.9 6.1 81 1.5 E 2 7 1 4 - - 0.0
16/01:30am 8.9 5.7 6.7 86 1.1 E 13 17 7 9 - - 0.0
16/01:00am 9.0 5.4 6.6 85 1.2 E 15 20 8 11 - - 0.0
16/12:30am 9.1 5.0 6.4 83 1.3 ESE 17 22 9 12 - - 0.0
16/12:00am 8.9 5.3 6.9 87 1.0 ESE 15 22 8 12 - - 0.0
 
Date/Time
EST
Temp
°C
App
Temp
°C
Dew
Point
Rel
Hum
%
Delta-T
°C
Wind Press
QNH
hPa
Press
MSL
hPa
Rain
since 9 am
mm
Dir
 
Spd
km/h
Gust
km/h
Spd
kts
Gust
kts
15/11:30pm 8.8 4.3 7.1 89 0.8 ESE 20 26 11 14 - - 0.0
15/11:00pm 8.8 4.3 7.1 89 0.8 ESE 20 28 11 15 - - 0.0
15/10:30pm 8.7 3.9 7.2 90 0.7 ESE 22 30 12 16 - - 0.0
15/10:00pm 9.0 4.5 6.8 86 1.1 ESE 20 30 11 16 - - 0.0
15/09:30pm 8.9 4.1 7.4 90 0.7 E 22 32 12 17 - - 0.0
15/09:00pm 9.1 4.1 7.9 92 0.6 ESE 24 33 13 18 - - 0.0
15/08:30pm 9.3 4.3 8.1 92 0.6 ESE 24 35 13 19 - - 0.0
15/08:00pm 9.5 4.9 8.3 92 0.6 ESE 22 30 12 16 - - 0.0
15/07:30pm 9.7 4.4 8.3 91 0.7 ESE 26 35 14 19 - - 0.0
15/07:00pm 10.1 5.5 8.2 88 1.0 ESE 22 32 12 17 - - 0.0
15/06:30pm 10.5 6.1 7.6 82 1.5 ESE 20 30 11 16 - - 0.0
15/06:00pm 10.8 6.9 7.3 79 1.8 SE 17 24 9 13 - - 0.0
15/05:30pm 11.4 7.6 7.5 77 2.0 SE 17 24 9 13 - - 0.0
15/05:00pm 12.0 9.0 7.5 74 2.3 SE 13 22 7 12 - - 0.0
15/04:30pm 13.0 10.5 8.1 72 2.5 SSE 11 19 6 10 - - 0.0
15/04:00pm 12.7 9.2 7.2 69 2.8 SSE 15 26 8 14 - - 0.0
15/03:30pm 12.5 9.4 7.2 70 2.7 SE 13 20 7 11 - - 0.0
15/03:00pm 13.2 10.0 7.0 66 3.1 SE 13 22 7 12 - - 0.0
15/02:30pm 12.4 8.9 7.1 70 2.7 SSE 15 22 8 12 - - 0.0
15/02:00pm 13.2 10.4 6.8 65 3.2 SSE 11 19 6 10 - - 0.0
15/01:30pm 14.1 11.6 8.3 68 3.0 SSE 11 20 6 11 - - 0.0
15/01:00pm 14.8 12.6 9.2 69 3.0 SE 11 17 6 9 - - 0.0
15/12:30pm 14.1 11.3 8.5 69 2.9 ESE 13 22 7 12 - - 0.0
15/12:00pm 12.9 9.9 7.6 70 2.7 SSE 13 22 7 12 - - 0.0
15/11:30am 12.4 9.4 7.9 74 2.3 SSE 13 26 7 14 - - 0.0
15/11:00am 12.7 10.6 8.2 74 2.3 SE 9 17 5 9 - - 0.0
15/10:30am 12.0 9.8 7.7 75 2.2 SE 9 17 5 9 - - 0.0
15/10:00am 10.8 8.3 8.2 84 1.3 SSE 11 22 6 12 - - 0.0
15/09:30am 10.7 7.7 7.6 81 1.6 E 13 33 7 18 - - 0.0
15/09:00am 10.1 6.6 7.2 82 1.4 ESE 15 22 8 12 - - 0.0
15/08:30am 9.7 6.1 6.8 82 1.4 ESE 15 24 8 13 - - 0.0
15/08:00am 8.9 5.4 7.0 88 0.9 SSE 15 24 8 13 - - 0.0
15/07:30am 8.6 5.7 6.6 87 1.0 SSE 11 19 6 10 - - 0.0
15/07:00am 8.0 4.3 6.1 88 0.9 SSE 15 22 8 12 - - 0.0
15/06:30am 8.4 3.9 6.2 86 1.1 SSE 19 28 10 15 - - 0.0
15/06:00am 8.4 4.3 6.4 87 1.0 SE 17 26 9 14 - - 0.0
15/05:30am 8.2 5.0 6.7 90 0.7 SSE 13 20 7 11 - - 0.0
15/05:00am 8.1 5.7 7.0 93 0.5 SSE 9 20 5 11 - - 0.0
15/04:30am 8.4 5.0 7.5 94 0.4 SSE 15 26 8 14 - - 0.0
15/04:00am 8.5 4.4 7.7 95 0.4 SE 19 35 10 19 - - 0.0
15/03:30am 8.2 5.1 7.3 94 0.4 SE 13 24 7 13 - - 0.0
15/03:00am 8.2 4.3 7.1 93 0.5 SE 17 32 9 17 - - 0.0
15/02:30am 8.1 3.8 7.0 93 0.5 ESE 19 32 10 17 - - 0.0
15/02:00am 8.0 2.8 7.2 95 0.4 ESE 24 41 13 22 - - 0.0
15/01:30am 7.7 2.8 7.1 96 0.3 SE 22 37 12 20 - - 0.0
15/01:00am 7.7 3.5 7.3 97 0.2 SE 19 33 10 18 - - 0.0
15/12:30am 7.4 3.0 6.7 95 0.3 SE 19 32 10 17 - - 0.0
15/12:00am 7.5 3.0 6.8 95 0.3 SE 20 33 11 18 - - 0.0
 
Date/Time
EST
Temp
°C
App
Temp
°C
Dew
Point
Rel
Hum
%
Delta-T
°C
Wind Press
QNH
hPa
Press
MSL
hPa
Rain
since 9 am
mm
Dir
 
Spd
km/h
Gust
km/h
Spd
kts
Gust
kts
14/11:30pm 8.2 3.5 6.0 86 1.1 SE 20 33 11 18 - - 0.0
14/11:00pm 8.3 2.7 5.4 82 1.4 SE 24 39 13 21 - - 0.0
14/10:30pm 8.4 3.1 5.0 79 1.6 SE 22 37 12 20 - - 0.0
14/10:00pm 8.2 3.0 5.5 83 1.3 SE 22 33 12 18 - - 0.0
14/09:30pm 8.5 3.7 4.5 76 1.9 SE 19 35 10 19 - - 0.0
14/09:00pm 8.6 3.8 4.6 76 1.9 SE 19 33 10 18 - - 0.0
14/08:30pm 8.8 3.4 4.4 74 2.0 SE 22 35 12 19 - - 0.0
14/08:00pm 9.1 3.7 4.5 73 2.1 SE 22 35 12 19 - - 0.0
14/07:30pm 9.4 4.4 4.8 73 2.2 SE 20 33 11 18 - - 0.0
14/07:00pm 9.7 4.8 5.3 74 2.1 SSE 20 33 11 18 - - 0.0
14/06:30pm 10.1 5.3 5.7 74 2.1 SE 20 30 11 16 - - 0.0
14/06:00pm 10.6 5.8 5.6 71 2.4 SE 20 30 11 16 - - 0.0
14/05:30pm 11.5 6.9 5.4 66 3.0 SSE 19 30 10 16 - - 0.0
14/05:00pm 12.2 8.2 5.1 62 3.4 SSE 15 30 8 16 - - 0.0
14/04:30pm 12.9 9.0 5.3 60 3.7 SE 15 30 8 16 - - 0.0
14/04:00pm 13.3 9.4 5.5 59 3.8 SSE 15 24 8 13 - - 0.0
14/03:30pm 13.6 10.1 5.5 58 4.0 SE 13 28 7 15 - - 0.0
14/03:00pm 14.2 11.3 6.3 59 4.0 SE 11 20 6 11 - - 0.0
14/02:30pm 13.3 9.0 5.2 58 4.0 SE 17 26 9 14 - - 0.0
14/02:00pm 13.3 9.2 6.4 63 3.5 ESE 17 26 9 14 - - 0.0
14/01:30pm 13.1 9.3 6.0 62 3.5 ESE 15 26 8 14 - - 0.0
14/01:00pm 12.9 9.1 5.6 61 3.6 SE 15 26 8 14 - - 0.0
14/12:30pm 13.0 8.9 6.1 63 3.4 SE 17 28 9 15 - - 0.0
14/12:00pm 12.2 7.4 5.8 65 3.1 SE 20 32 11 17 - - 0.0
14/11:30am 11.8 7.3 5.9 67 2.9 ESE 19 30 10 16 - - 0.0
14/11:00am 11.3 6.9 6.6 73 2.3 SE 19 32 10 17 - - 0.0
14/10:30am 10.2 5.2 6.4 77 1.9 ESE 22 35 12 19 - - 0.0
14/10:00am 9.5 2.5 5.9 78 1.7 ESE 32 50 17 27 - - 0.0
14/09:32am 9.2 2.5 5.6 78 1.7 ESE 30 48 16 26 - - 0.0
14/09:30am 9.2 2.1 5.4 77 1.8 SE 32 48 17 26 - - 0.0
14/09:04am 9.2 2.0 5.0 75 2.0 SE 32 50 17 27 - - 0.0
14/09:00am 9.0 1.6 5.0 76 1.9 SE 33 50 18 27 - - 0.0
14/08:39am 8.7 1.9 5.3 79 1.6 ESE 30 48 16 26 - - 0.0
14/08:30am 8.5 1.7 5.3 80 1.5 ESE 30 46 16 25 - - 0.0
14/08:00am 8.5 1.3 5.1 79 1.6 ESE 32 52 17 28 - - 0.0
14/07:36am 8.1 0.9 5.2 82 1.4 SE 32 50 17 27 - - 0.0
14/07:30am 8.0 1.5 4.9 81 1.4 SE 28 43 15 23 - - 0.0
14/07:00am 7.7 1.0 3.7 76 1.8 SE 28 48 15 26 - - 0.0
14/06:39am 7.5 0.4 3.7 77 1.7 SE 30 48 16 26 - - 0.0
14/06:30am 7.7 0.2 3.7 76 1.8 SE 32 48 17 26 - - 0.0
14/06:00am 7.6 0.0 4.0 78 1.6 SE 33 52 18 28 - - 0.0
14/05:30am 7.5 0.2 4.6 82 1.3 SE 32 50 17 27 - - 0.0
14/05:00am 7.8 0.4 4.2 78 1.7 SE 32 50 17 27 - - 0.0
14/04:30am 7.7 0.1 4.1 78 1.6 SE 33 52 18 28 - - 0.0
14/04:00am 7.6 0.5 5.4 86 1.0 SE 32 52 17 28 - - 0.0
14/03:33am 7.3 0.6 5.6 89 0.8 SE 30 50 16 27 - - 0.0
14/03:30am 7.3 0.6 5.4 88 0.9 SE 30 43 16 23 - - 0.0
14/03:00am 7.4 1.1 5.7 89 0.8 SE 28 46 15 25 - - 0.0
14/02:34am 7.5 1.0 6.4 93 0.5 SE 30 48 16 26 - - 0.0
14/02:30am 7.5 0.6 6.4 93 0.5 SE 32 46 17 25 - - 0.0
14/02:13am 7.6 0.2 6.7 94 0.4 SE 35 57 19 31 - - 0.0
14/02:00am 7.6 -0.3 6.4 92 0.6 ESE 37 54 20 29 - - 0.0
14/01:30am 7.5 0.5 3.9 78 1.6 SE 30 48 16 26 - - 0.0
14/01:11am 7.3 0.8 4.9 85 1.1 ESE 28 46 15 25 - - 0.0
14/01:00am 7.2 1.1 5.0 86 1.0 SE 26 43 14 23 - - 0.0
14/12:30am 7.1 1.6 5.7 91 0.7 SE 24 37 13 20 - - 0.0
14/12:02am 7.2 1.0 6.1 93 0.5 SE 28 46 15 25 - - 0.0
14/12:00am 7.2 1.0 6.0 92 0.6 SE 28 41 15 22 - - 0.0
 
Date/Time
EST
Temp
°C
App
Temp
°C
Dew
Point
Rel
Hum
%
Delta-T
°C
Wind Press
QNH
hPa
Press
MSL
hPa
Rain
since 9 am
mm
Dir
 
Spd
km/h
Gust
km/h
Spd
kts
Gust
kts
13/11:35pm 7.4 1.2 6.2 92 0.6 SE 28 46 15 25 - - 0.0
13/11:30pm 7.4 1.6 6.2 92 0.6 SE 26 46 14 25 - - 0.0
13/11:00pm 7.7 1.6 6.8 94 0.4 SE 28 46 15 25 - - 0.0
13/10:30pm 7.8 1.4 7.1 95 0.3 SE 30 50 16 27 - - 0.0
13/10:00pm 7.9 1.8 6.7 92 0.6 SE 28 46 15 25 - - 0.0
13/09:30pm 8.7 2.8 5.8 82 1.4 SSE 26 43 14 23 - - 0.0
13/09:00pm 8.6 3.3 6.9 89 0.8 SE 24 33 13 18 - - 0.0
13/08:30pm 8.9 3.7 7.2 89 0.8 SE 24 35 13 19 - - 0.0
13/08:00pm 9.3 4.6 7.9 91 0.7 SE 22 35 12 19 - - 0.0
13/07:30pm 9.8 4.7 7.6 86 1.1 SE 24 41 13 22 - - 0.0
13/07:00pm 10.3 5.5 7.5 83 1.4 SE 22 32 12 17 - - 0.0
13/06:30pm 10.7 5.9 7.4 80 1.7 SSE 22 32 12 17 - - 0.0
13/06:00pm 11.2 6.4 7.3 77 2.0 S 22 33 12 18 - - 0.0
13/05:30pm 12.0 7.2 7.3 73 2.4 SSE 22 33 12 18 - - 0.0

Other Formats:

Comma delimited format used in spreadsheet applications
http://www.bom.gov.au/fwo/IDV60801/IDV60801.94835.axf

JavaScript Object Notation format (JSON) in row-major order
http://www.bom.gov.au/fwo/IDV60801/IDV60801.94835.json